Time;durP1;ratioP1;P1;durP2;ratioP2;P2;SDS_P1;SDS_P2;PMS_P1;PMS_P2;Temp;Humidity;BMP_temperature;BMP_pressure;BME280_temperature;BME280_humidity;BME280_pressure;Samples;Min_cycle;Max_cycle;Signal;HPM_P1;HPM_P2
2023/12/11 05:01:34;;;;;;;11.05;3.13;;;8.50;99.90;;;;;;5351303;23;20276;-74
2023/12/11 05:04:00;;;;;;;16.15;3.40;;;8.50;99.90;;;;;;4920654;29;20228;-74
2023/12/11 05:06:27;;;;;;;9.32;3.30;;;8.50;99.90;;;;;;4928531;29;20202;-73
2023/12/11 05:08:54;;;;;;;10.10;3.90;;;8.50;99.90;;;;;;4932440;29;20522;-73
2023/12/11 05:11:20;;;;;;;10.32;2.63;;;8.40;99.90;;;;;;4911638;29;20242;-74
2023/12/11 05:13:47;;;;;;;11.73;2.95;;;8.40;99.90;;;;;;4907484;29;20243;-73
2023/12/11 05:16:14;;;;;;;10.48;3.40;;;8.40;99.90;;;;;;4912785;29;20214;-73
2023/12/11 05:18:42;;;;;;;8.52;4.38;;;8.40;99.90;;;;;;4901386;29;20245;-74
2023/12/11 05:21:10;;;;;;;7.47;3.22;;;8.30;99.90;;;;;;4905722;29;20608;-74
2023/12/11 05:23:37;;;;;;;10.68;4.45;;;8.30;99.90;;;;;;4907130;29;20215;-74
2023/12/11 05:26:04;;;;;;;6.13;3.08;;;8.30;99.90;;;;;;4909053;29;20687;-74
2023/12/11 05:28:31;;;;;;;16.60;4.05;;;8.30;99.90;;;;;;4908554;29;20693;-74
2023/12/11 05:30:57;;;;;;;12.00;4.05;;;8.30;99.90;;;;;;4911372;29;20241;-74
2023/12/11 05:33:24;;;;;;;4.93;3.10;;;8.30;99.90;;;;;;4912294;29;20234;-73
2023/12/11 05:35:52;;;;;;;9.32;3.35;;;8.30;99.90;;;;;;4910880;29;20233;-73
2023/12/11 05:38:19;;;;;;;22.15;4.10;;;8.30;99.90;;;;;;4906475;29;20216;-73
2023/12/11 05:40:46;;;;;;;3.25;2.80;;;8.30;99.90;;;;;;4911786;29;20241;-75
2023/12/11 05:43:13;;;;;;;13.05;3.50;;;8.30;99.90;;;;;;4912880;29;20240;-72
2023/12/11 05:45:39;;;;;;;7.68;3.10;;;8.30;99.90;;;;;;4913256;29;20230;-73
2023/12/11 05:48:07;;;;;;;13.45;3.72;;;8.30;99.90;;;;;;4911919;29;20716;-73
2023/12/11 05:50:34;;;;;;;11.43;3.72;;;8.30;99.90;;;;;;4913061;29;20236;-74
2023/12/11 05:53:02;;;;;;;12.45;3.97;;;8.30;99.90;;;;;;4913504;29;20699;-73
2023/12/11 05:55:28;;;;;;;14.85;3.40;;;8.30;99.90;;;;;;4912305;29;20229;-73
2023/12/11 05:57:55;;;;;;;10.70;3.15;;;8.40;99.90;;;;;;4904717;29;20213;-74
2023/12/11 06:00:22;;;;;;;7.93;4.15;;;8.40;99.90;;;;;;4912812;29;20222;-74
2023/12/11 06:02:49;;;;;;;60.45;27.25;;;8.30;99.90;;;;;;4910680;29;20230;-73
2023/12/11 06:05:16;;;;;;;76.38;35.08;;;8.30;99.90;;;;;;4912177;29;20664;-73
2023/12/11 06:07:42;;;;;;;25.65;8.25;;;8.30;99.90;;;;;;4912681;29;20218;-74
2023/12/11 06:10:11;;;;;;;32.80;19.40;;;8.30;99.90;;;;;;4912198;29;20352;-74
2023/12/11 06:12:37;;;;;;;17.50;9.02;;;8.30;99.90;;;;;;4912296;29;20211;-74
2023/12/11 06:15:05;;;;;;;28.60;15.73;;;8.30;99.90;;;;;;4911072;29;20242;-74
2023/12/11 06:17:31;;;;;;;17.40;8.65;;;8.30;99.90;;;;;;4912530;29;20206;-73
2023/12/11 06:19:59;;;;;;;21.23;11.07;;;8.30;99.90;;;;;;4909587;29;20238;-74
2023/12/11 06:22:25;;;;;;;15.43;7.85;;;8.30;99.90;;;;;;4912568;29;20265;-74
2023/12/11 06:24:52;;;;;;;19.80;10.82;;;8.30;99.90;;;;;;4915126;29;20661;-74
2023/12/11 06:27:22;;;;;;;25.38;9.27;;;8.20;99.90;;;;;;4910126;29;20221;-73
2023/12/11 06:29:49;;;;;;;5.70;4.65;;;8.20;99.90;;;;;;4916194;29;20210;-74
2023/12/11 06:32:16;;;;;;;8.70;4.22;;;8.20;99.90;;;;;;4919613;29;20310;-73
2023/12/11 06:34:42;;;;;;;7.70;4.50;;;8.20;99.90;;;;;;4915472;29;20218;-74
2023/12/11 06:37:09;;;;;;;8.95;5.38;;;8.20;99.90;;;;;;4915498;29;20227;-74
2023/12/11 06:39:36;;;;;;;10.82;6.63;;;8.20;99.90;;;;;;4917257;29;20257;-74
2023/12/11 06:42:03;;;;;;;14.30;7.28;;;8.30;99.90;;;;;;4915237;29;20226;-75
2023/12/11 06:44:31;;;;;;;5.57;3.58;;;8.30;99.90;;;;;;4915518;29;20224;-73
2023/12/11 06:46:58;;;;;;;14.65;4.60;;;8.30;99.90;;;;;;4914928;29;20213;-74
2023/12/11 06:49:25;;;;;;;7.57;4.50;;;8.30;99.90;;;;;;4916082;29;20212;-74
2023/12/11 06:51:52;;;;;;;4.97;4.22;;;8.30;99.90;;;;;;4913105;29;20725;-74
2023/12/11 06:54:19;;;;;;;11.23;3.58;;;8.20;99.90;;;;;;4913475;29;20358;-73
2023/12/11 06:56:46;;;;;;;9.50;4.28;;;8.20;99.90;;;;;;4915487;29;20294;-74
2023/12/11 06:59:12;;;;;;;18.00;4.43;;;8.30;99.90;;;;;;4915730;29;20306;-74
2023/12/11 07:01:40;;;;;;;13.32;4.65;;;8.20;99.90;;;;;;4911569;29;20257;-75
2023/12/11 07:04:07;;;;;;;7.22;3.78;;;8.30;99.90;;;;;;4908543;29;20210;-75
2023/12/11 07:06:34;;;;;;;5.70;3.63;;;8.30;99.90;;;;;;4911859;29;20274;-75
2023/12/11 07:09:01;;;;;;;12.40;4.60;;;8.20;99.90;;;;;;4915836;29;20661;-75
2023/12/11 07:11:27;;;;;;;5.68;4.18;;;8.20;99.90;;;;;;4914046;29;20234;-77
2023/12/11 07:13:54;;;;;;;13.25;4.28;;;8.30;99.90;;;;;;4909579;29;20215;-74
2023/12/11 07:16:23;;;;;;;7.40;3.40;;;8.30;99.90;;;;;;4912684;29;20574;-74
2023/12/11 07:18:51;;;;;;;13.90;4.28;;;8.30;99.90;;;;;;4914533;29;20295;-74
2023/12/11 07:21:18;;;;;;;15.75;3.70;;;8.30;99.90;;;;;;4911702;29;20232;-74
2023/12/11 07:23:47;;;;;;;11.52;4.25;;;8.30;99.90;;;;;;4908418;29;20214;-75
2023/12/11 07:26:14;;;;;;;3.08;2.70;;;8.30;99.90;;;;;;4913537;29;20210;-74
2023/12/11 07:28:41;;;;;;;14.25;4.13;;;8.20;99.90;;;;;;4915361;29;20231;-75
2023/12/11 07:31:08;;;;;;;6.93;3.40;;;8.20;99.90;;;;;;4911646;29;20229;-74
2023/12/11 07:33:35;;;;;;;11.75;3.10;;;8.20;99.90;;;;;;4911597;29;20505;-76
2023/12/11 07:36:04;;;;;;;9.70;4.00;;;8.20;99.90;;;;;;4914483;29;20672;-74
2023/12/11 07:38:31;;;;;;;8.77;2.85;;;8.20;99.90;;;;;;4912575;29;20226;-74
2023/12/11 07:40:58;;;;;;;7.47;3.25;;;8.20;99.90;;;;;;4910058;29;20325;-76
2023/12/11 07:43:25;;;;;;;10.38;3.90;;;8.30;99.90;;;;;;4912711;29;20590;-76
2023/12/11 07:45:52;;;;;;;10.32;3.20;;;8.30;99.90;;;;;;4913670;29;20221;-75
2023/12/11 07:48:19;;;;;;;6.50;2.85;;;8.30;99.90;;;;;;4913331;29;20254;-74
2023/12/11 07:50:45;;;;;;;4.25;2.67;;;8.30;99.90;;;;;;4914017;29;20234;-77
2023/12/11 07:53:13;;;;;;;13.73;3.70;;;8.20;99.90;;;;;;4912577;29;20207;-76
2023/12/11 07:55:40;;;;;;;7.63;4.43;;;8.20;99.90;;;;;;4912347;29;20215;-76
2023/12/11 07:58:07;;;;;;;4.15;3.78;;;8.20;99.90;;;;;;4913975;29;20214;-76
2023/12/11 08:00:34;;;;;;;13.18;4.05;;;8.20;99.90;;;;;;4912435;29;20234;-74
2023/12/11 08:03:02;;;;;;;3.35;2.90;;;8.20;99.90;;;;;;4911479;29;20645;-75
2023/12/11 08:05:28;;;;;;;8.48;3.90;;;8.20;99.90;;;;;;4913160;29;20211;-74
2023/12/11 08:07:55;;;;;;;5.20;2.45;;;8.20;99.90;;;;;;4907308;29;20571;-74
2023/12/11 08:10:23;;;;;;;5.40;3.22;;;8.20;99.90;;;;;;4910024;29;20210;-75
2023/12/11 08:12:51;;;;;;;6.57;4.53;;;8.20;99.90;;;;;;4912716;29;20678;-75
2023/12/11 08:15:18;;;;;;;6.13;4.07;;;8.30;99.90;;;;;;4912167;29;20207;-74
2023/12/11 08:17:45;;;;;;;10.88;3.83;;;8.20;99.90;;;;;;4909622;29;20557;-74
2023/12/11 08:20:16;;;;;;;16.52;4.13;;;8.30;99.90;;;;;;4910523;29;20231;-74
2023/12/11 08:22:43;;;;;;;4.03;3.72;;;8.30;99.90;;;;;;4911726;29;20204;-74
2023/12/11 08:25:12;;;;;;;8.30;4.88;;;8.30;99.90;;;;;;4913333;29;20585;-74
2023/12/11 08:27:41;;;;;;;8.07;6.45;;;8.30;99.90;;;;;;4906896;29;20207;-74
2023/12/11 08:30:09;;;;;;;11.00;5.63;;;8.40;99.90;;;;;;4911340;29;20202;-74
2023/12/11 08:32:38;;;;;;;8.32;5.00;;;8.40;99.90;;;;;;4912004;29;22122;-75
2023/12/11 08:35:05;;;;;;;5.47;4.28;;;8.40;99.90;;;;;;4912910;29;20211;-74
2023/12/11 08:37:33;;;;;;;6.85;3.05;;;8.40;99.90;;;;;;4913465;29;20214;-74
2023/12/11 08:40:00;;;;;;;6.78;5.10;;;8.40;99.90;;;;;;4913106;29;20228;-74
2023/12/11 08:42:26;;;;;;;11.80;5.03;;;8.40;99.90;;;;;;4911582;29;20223;-74
2023/12/11 08:44:54;;;;;;;7.80;3.83;;;8.40;99.90;;;;;;4906807;29;20223;-74
2023/12/11 08:47:21;;;;;;;6.38;3.30;;;8.50;99.90;;;;;;4909065;29;20218;-74
2023/12/11 08:49:48;;;;;;;6.88;3.63;;;8.50;99.90;;;;;;4913279;29;20206;-74
2023/12/11 08:52:14;;;;;;;5.55;3.30;;;8.50;99.90;;;;;;4912339;29;20725;-73
2023/12/11 08:54:41;;;;;;;8.10;3.88;;;8.50;99.90;;;;;;4910022;29;20270;-74
2023/12/11 08:57:08;;;;;;;4.60;3.88;;;8.50;99.90;;;;;;4910207;29;20308;-74
2023/12/11 08:59:35;;;;;;;7.90;2.85;;;8.60;99.90;;;;;;4909366;29;20276;-74
2023/12/11 09:02:03;;;;;;;9.95;4.43;;;8.60;99.90;;;;;;4907205;29;20333;-74
2023/12/11 09:04:30;;;;;;;6.82;2.92;;;8.70;99.90;;;;;;4912704;29;20211;-74
2023/12/11 09:06:57;;;;;;;6.03;3.50;;;8.70;99.90;;;;;;4909461;29;20210;-74
2023/12/11 09:09:23;;;;;;;7.43;3.85;;;8.70;99.90;;;;;;4910652;29;20219;-74
2023/12/11 09:11:51;;;;;;;4.43;3.40;;;8.70;99.90;;;;;;4908441;29;20238;-74
2023/12/11 09:14:18;;;;;;;12.52;4.55;;;8.80;99.90;;;;;;4908973;29;20222;-73
2023/12/11 09:16:54;;;;;;;16.20;7.43;;;8.80;99.90;;;;;;4910883;29;20215;-73
2023/12/11 09:19:31;;;;;;;9.55;5.22;;;8.80;99.90;;;;;;4910418;29;20206;-74
2023/12/11 09:22:11;;;;;;;15.10;6.90;;;8.90;99.90;;;;;;4908652;29;20282;-74
2023/12/11 09:24:47;;;;;;;5.70;4.20;;;8.90;99.90;;;;;;4903136;29;20227;-74
2023/12/11 09:27:14;;;;;;;7.85;3.50;;;8.90;99.90;;;;;;4907860;29;20222;-74
2023/12/11 09:29:42;;;;;;;21.58;8.30;;;8.90;99.90;;;;;;4912050;29;20210;-74
2023/12/11 09:32:12;;;;;;;6.63;6.03;;;8.90;99.90;;;;;;4906981;29;20701;-74
2023/12/11 09:34:41;;;;;;;8.73;3.75;;;8.90;99.90;;;;;;4910773;29;20209;-74
2023/12/11 09:37:23;;;;;;;3.97;3.35;;;8.90;99.90;;;;;;4904251;29;20287;-74
2023/12/11 09:39:53;;;;;;;7.82;2.72;;;9.00;99.90;;;;;;4910528;29;20303;-75
2023/12/11 09:42:22;;;;;;;11.77;6.05;;;9.00;99.90;;;;;;4909771;29;20250;-74
2023/12/11 09:44:56;;;;;;;12.52;7.70;;;9.00;99.90;;;;;;4907865;29;20324;-74
2023/12/11 09:47:29;;;;;;;8.98;3.83;;;9.00;99.90;;;;;;4912405;29;20220;-74
2023/12/11 09:50:02;;;;;;;6.00;3.92;;;9.00;99.90;;;;;;4910096;29;20218;-74
2023/12/11 09:52:30;;;;;;;8.82;3.65;;;9.10;99.90;;;;;;4910874;29;20238;-74
2023/12/11 09:54:59;;;;;;;8.48;4.30;;;9.10;99.90;;;;;;4911951;29;20302;-74
2023/12/11 09:57:33;;;;;;;6.97;3.65;;;9.10;99.90;;;;;;4916524;29;20207;-74
2023/12/11 10:00:10;;;;;;;8.20;3.08;;;9.10;99.90;;;;;;4913239;29;20270;-74
2023/12/11 10:02:41;;;;;;;5.45;2.83;;;9.10;99.90;;;;;;4913810;29;20210;-74
2023/12/11 10:05:10;;;;;;;13.63;6.15;;;9.20;99.90;;;;;;4913491;29;20348;-74
2023/12/11 10:07:41;;;;;;;7.90;4.57;;;9.20;99.90;;;;;;4912161;29;20227;-74
2023/12/11 10:10:20;;;;;;;5.65;3.45;;;9.20;99.90;;;;;;4912548;29;20206;-75
2023/12/11 10:12:48;;;;;;;2.85;2.65;;;9.20;99.90;;;;;;4908123;29;20287;-75
2023/12/11 10:15:22;;;;;;;4.55;2.22;;;9.20;99.90;;;;;;4915983;29;20298;-75
2023/12/11 10:18:09;;;;;;;8.77;3.28;;;9.20;99.90;;;;;;4915791;29;20248;-74
2023/12/11 10:20:41;;;;;;;5.00;3.10;;;9.20;99.90;;;;;;4912071;29;20312;-75
2023/12/11 10:23:22;;;;;;;2.78;1.98;;;9.30;99.90;;;;;;4909839;29;20385;-75
2023/12/11 10:25:56;;;;;;;11.55;2.95;;;9.30;99.90;;;;;;4913031;29;20303;-75
2023/12/11 10:28:25;;;;;;;6.07;3.28;;;9.20;99.90;;;;;;4916761;29;20298;-75
2023/12/11 10:31:06;;;;;;;3.15;2.63;;;9.30;99.90;;;;;;4914830;29;20228;-75
2023/12/11 10:33:48;;;;;;;13.75;3.78;;;9.30;99.90;;;;;;4914572;29;20690;-75
2023/12/11 10:36:31;;;;;;;4.53;3.85;;;9.20;99.90;;;;;;4913102;29;20663;-75
2023/12/11 10:39:13;;;;;;;4.15;2.22;;;9.30;99.90;;;;;;4916228;29;20604;-75
2023/12/11 10:41:41;;;;;;;3.45;2.05;;;9.20;99.90;;;;;;4913303;29;20234;-75
2023/12/11 10:44:22;;;;;;;8.60;3.50;;;9.30;99.90;;;;;;4910812;29;20253;-75
2023/12/11 10:46:56;;;;;;;7.55;3.13;;;9.30;99.90;;;;;;4912335;29;20216;-75
2023/12/11 10:49:31;;;;;;;7.97;6.00;;;9.30;99.90;;;;;;4911558;29;20219;-75
2023/12/11 10:52:10;;;;;;;8.90;3.40;;;9.30;99.90;;;;;;4917533;29;20225;-75
2023/12/11 10:54:46;;;;;;;8.25;3.85;;;9.30;99.90;;;;;;4920014;29;20580;-75
2023/12/11 10:57:19;;;;;;;5.65;2.63;;;9.40;99.90;;;;;;4910675;29;20213;-73
2023/12/11 10:59:52;;;;;;;2.00;1.88;;;9.40;99.90;;;;;;4908146;29;20212;-76
2023/12/11 11:02:34;;;;;;;3.83;2.85;;;9.40;99.90;;;;;;4914684;29;20314;-75
2023/12/11 11:05:05;;;;;;;3.05;1.75;;;9.40;99.90;;;;;;4909821;29;20288;-75
2023/12/11 11:07:43;;;;;;;9.55;2.90;;;9.40;99.90;;;;;;4912631;29;20227;-75
2023/12/11 11:10:19;;;;;;;9.93;8.93;;;9.50;99.90;;;;;;4908676;29;20205;-75
2023/12/11 11:12:57;;;;;;;8.15;3.17;;;9.50;99.90;;;;;;4909671;29;20215;-71
2023/12/11 11:15:28;;;;;;;6.72;3.67;;;9.50;99.90;;;;;;4909444;29;20550;-75
2023/12/11 11:18:11;;;;;;;4.53;2.47;;;9.50;99.90;;;;;;4914299;29;20623;-75
2023/12/11 11:21:11;;;;;;;14.32;3.10;;;9.50;99.90;;;;;;4915603;29;20239;-75
2023/12/11 11:23:54;;;;;;;3.42;3.00;;;9.50;99.90;;;;;;4915824;29;20211;-75
2023/12/11 11:26:38;;;;;;;6.90;2.85;;;9.60;99.90;;;;;;4904960;29;20313;-75
2023/12/11 11:29:33;;;;;;;4.10;2.55;;;9.60;99.90;;;;;;4914364;29;20319;-75
2023/12/11 11:32:09;;;;;;;5.07;2.30;;;9.70;99.90;;;;;;4908848;29;20236;-75
2023/12/11 11:34:48;;;;;;;4.55;3.00;;;9.70;99.90;;;;;;4912123;29;20629;-74
2023/12/11 11:37:21;;;;;;;10.82;3.50;;;9.70;99.90;;;;;;4911405;29;20594;-75
2023/12/11 11:42:51;;;;;;;2.33;2.08;;;9.70;99.90;;;;;;4907671;29;20222;-75
2023/12/11 11:45:18;;;;;;;3.13;3.00;;;9.70;99.90;;;;;;4913734;29;20518;-71
2023/12/11 11:47:51;;;;;;;4.18;1.85;;;9.70;99.90;;;;;;4914277;29;20559;-72
2023/12/11 11:50:19;;;;;;;1.77;1.67;;;9.70;99.90;;;;;;4917105;29;20225;-72
2023/12/11 11:52:47;;;;;;;2.45;1.50;;;9.80;99.90;;;;;;4914110;29;20221;-72
2023/12/11 11:55:23;;;;;;;5.97;2.63;;;9.80;99.90;;;;;;4914563;29;20282;-73
2023/12/11 11:57:50;;;;;;;9.80;7.20;;;9.90;99.90;;;;;;4911403;29;20631;-72
2023/12/11 12:00:22;;;;;;;2.78;2.55;;;9.90;99.90;;;;;;4913728;29;20210;-72
2023/12/11 12:02:56;;;;;;;5.40;1.90;;;10.00;99.90;;;;;;4913123;29;20363;-71
2023/12/11 12:05:23;;;;;;;3.13;1.80;;;10.00;99.90;;;;;;4913281;29;20803;-73
2023/12/11 12:07:49;;;;;;;1.70;1.70;;;10.10;99.90;;;;;;4910678;29;20474;-73
2023/12/11 12:10:18;;;;;;;1.87;1.77;;;10.10;99.90;;;;;;4910286;29;20205;-73
2023/12/11 12:12:49;;;;;;;1.30;1.30;;;10.20;99.90;;;;;;4910929;29;20472;-72
2023/12/11 12:15:17;;;;;;;2.08;1.90;;;10.10;99.90;;;;;;4912653;29;21065;-73
2023/12/11 12:17:45;;;;;;;2.50;2.40;;;10.10;99.90;;;;;;4912770;29;20221;-73
2023/12/11 12:20:12;;;;;;;2.20;2.10;;;10.10;99.90;;;;;;4912373;29;20511;-73
2023/12/11 12:22:39;;;;;;;3.33;1.45;;;10.10;99.90;;;;;;4905733;29;20221;-73
2023/12/11 12:25:14;;;;;;;4.93;2.10;;;10.10;99.90;;;;;;4908527;29;20205;-73
2023/12/11 12:27:43;;;;;;;2.70;2.60;;;10.00;99.90;;;;;;4910804;29;20802;-73
2023/12/11 12:30:10;;;;;;;5.18;4.32;;;10.00;99.90;;;;;;4910601;29;20491;-75
2023/12/11 12:32:37;;;;;;;4.97;3.25;;;9.90;99.90;;;;;;4911267;29;20210;-73
2023/12/11 12:35:07;;;;;;;2.95;1.83;;;9.90;99.90;;;;;;4912040;29;20217;-72
2023/12/11 12:37:35;;;;;;;1.70;1.60;;;9.90;99.90;;;;;;4913091;29;20314;-73
2023/12/11 12:40:04;;;;;;;2.25;2.15;;;9.90;99.90;;;;;;4910675;29;20920;-72
2023/12/11 12:42:31;;;;;;;1.45;1.45;;;9.90;99.90;;;;;;4911634;29;20271;-73
2023/12/11 12:44:59;;;;;;;2.95;2.47;;;9.90;99.90;;;;;;4910194;29;20576;-73
2023/12/11 12:47:26;;;;;;;2.72;2.42;;;9.90;99.90;;;;;;4907634;29;20213;-73
2023/12/11 12:49:52;;;;;;;2.83;2.63;;;9.90;99.90;;;;;;4913803;29;20293;-74
2023/12/11 12:52:23;;;;;;;2.95;1.60;;;9.90;99.90;;;;;;4913329;29;20226;-74
2023/12/11 12:54:51;;;;;;;1.45;1.45;;;9.80;99.90;;;;;;4913432;29;20631;-74
2023/12/11 12:57:19;;;;;;;2.88;1.73;;;9.80;99.90;;;;;;4911181;29;20227;-74
2023/12/11 12:59:46;;;;;;;2.25;2.10;;;9.80;99.90;;;;;;4910744;29;20213;-74
2023/12/11 13:02:15;;;;;;;3.28;2.13;;;9.80;99.90;;;;;;4912007;29;20237;-74
2023/12/11 13:04:49;;;;;;;2.08;1.98;;;9.80;99.90;;;;;;4911518;29;20216;-74
2023/12/11 13:07:16;;;;;;;2.00;1.90;;;9.80;99.90;;;;;;4907747;29;20209;-74
2023/12/11 13:09:43;;;;;;;2.60;1.88;;;9.80;99.90;;;;;;4911521;29;20480;-74
2023/12/11 13:12:09;;;;;;;5.72;3.00;;;9.80;99.90;;;;;;4912608;29;20229;-74
2023/12/11 13:14:36;;;;;;;3.17;2.85;;;9.80;99.90;;;;;;4911089;29;20232;-74
2023/12/11 13:17:03;;;;;;;4.40;2.70;;;9.80;99.90;;;;;;4912496;29;20564;-74
2023/12/11 13:19:31;;;;;;;2.00;1.77;;;9.70;99.90;;;;;;4911816;29;20215;-74
2023/12/11 13:21:58;;;;;;;2.45;2.25;;;9.70;99.90;;;;;;4909778;29;20243;-74
2023/12/11 13:24:24;;;;;;;2.55;2.35;;;9.70;99.90;;;;;;4911485;29;20298;-74
2023/12/11 13:26:51;;;;;;;2.67;2.03;;;9.70;99.90;;;;;;4904563;29;20219;-74
2023/12/11 13:29:18;;;;;;;4.80;2.20;;;9.70;99.90;;;;;;4912762;29;20208;-74
2023/12/11 13:31:46;;;;;;;3.70;2.30;;;9.70;99.90;;;;;;4908554;29;20224;-74
2023/12/11 13:34:12;;;;;;;6.55;2.33;;;9.70;99.90;;;;;;4909729;29;20210;-74
2023/12/11 13:36:40;;;;;;;2.60;2.45;;;9.60;99.90;;;;;;4909339;29;20673;-73
2023/12/11 13:39:08;;;;;;;12.30;5.30;;;9.60;99.90;;;;;;4910027;29;20212;-74
2023/12/11 13:41:36;;;;;;;3.25;3.10;;;9.60;99.90;;;;;;4909491;29;20246;-73
2023/12/11 13:44:03;;;;;;;3.38;2.30;;;9.60;99.90;;;;;;4912283;29;20216;-73
2023/12/11 13:46:30;;;;;;;3.63;2.28;;;9.60;99.90;;;;;;4909835;29;20212;-74
2023/12/11 13:48:57;;;;;;;2.67;2.25;;;9.50;99.90;;;;;;4911030;29;20284;-74
2023/12/11 13:51:24;;;;;;;3.63;1.50;;;9.50;99.90;;;;;;4909997;29;20228;-74
2023/12/11 13:53:52;;;;;;;3.45;1.40;;;9.50;99.90;;;;;;4912766;29;20215;-74
2023/12/11 13:56:20;;;;;;;2.22;2.00;;;9.50;99.90;;;;;;4913224;29;20259;-74
2023/12/11 13:58:48;;;;;;;6.07;1.40;;;9.50;99.90;;;;;;4913125;29;20265;-74
2023/12/11 14:01:15;;;;;;;2.35;2.25;;;9.40;99.90;;;;;;4912839;29;20253;-74
2023/12/11 14:03:42;;;;;;;2.30;1.73;;;9.40;99.90;;;;;;4911856;29;20212;-74
2023/12/11 14:06:09;;;;;;;2.63;2.30;;;9.40;99.90;;;;;;4909754;29;20302;-74
2023/12/11 14:08:36;;;;;;;1.45;1.30;;;9.40;99.90;;;;;;4911466;29;20223;-74
2023/12/11 14:11:04;;;;;;;1.40;1.30;;;9.40;99.90;;;;;;4913218;29;20238;-74
2023/12/11 14:13:31;;;;;;;1.52;1.40;;;9.40;99.90;;;;;;4912109;29;20639;-74
2023/12/11 14:15:58;;;;;;;2.35;2.15;;;9.40;99.90;;;;;;4909296;29;20219;-74
2023/12/11 14:18:25;;;;;;;2.05;1.02;;;9.40;99.90;;;;;;4909902;29;20590;-74
2023/12/11 14:20:52;;;;;;;2.05;1.45;;;9.40;99.90;;;;;;4910473;29;20234;-74
2023/12/11 14:23:19;;;;;;;1.77;1.67;;;9.40;99.90;;;;;;4913509;29;20213;-74
2023/12/11 14:25:46;;;;;;;3.97;1.80;;;9.30;99.90;;;;;;4904114;29;20315;-74
2023/12/11 14:28:14;;;;;;;2.90;1.55;;;9.30;99.90;;;;;;4900476;29;20218;-73
2023/12/11 14:30:41;;;;;;;6.25;4.43;;;9.30;99.90;;;;;;4901247;29;20244;-74
2023/12/11 14:33:08;;;;;;;12.35;7.95;;;9.30;99.90;;;;;;4901956;29;20231;-74
2023/12/11 14:35:35;;;;;;;5.50;4.10;;;9.30;99.90;;;;;;4905746;29;20682;-74
2023/12/11 14:38:02;;;;;;;3.40;3.17;;;9.30;99.90;;;;;;4905962;29;20303;-74
2023/12/11 14:40:29;;;;;;;3.90;3.80;;;9.30;99.90;;;;;;4908483;29;20218;-75
2023/12/11 14:42:55;;;;;;;2.45;2.33;;;9.30;99.90;;;;;;4913960;29;20641;-74
2023/12/11 14:45:23;;;;;;;4.22;1.48;;;9.30;99.90;;;;;;4915332;29;20219;-75
2023/12/11 14:47:50;;;;;;;4.97;2.53;;;9.30;99.90;;;;;;4913492;29;20252;-74
2023/12/11 14:50:17;;;;;;;3.85;1.60;;;9.30;99.90;;;;;;4913910;29;20214;-75
2023/12/11 14:55:12;;;;;;;3.22;2.90;;;9.20;99.90;;;;;;4930983;29;20241;-74
2023/12/11 14:57:39;;;;;;;2.47;1.90;;;9.20;99.90;;;;;;4934733;29;20217;-74
2023/12/11 15:00:07;;;;;;;2.20;2.10;;;9.20;99.90;;;;;;4931577;29;20210;-74
2023/12/11 15:02:38;;;;;;;3.03;2.00;;;9.20;99.90;;;;;;4931868;29;20240;-75
2023/12/11 15:05:07;;;;;;;2.05;1.95;;;9.20;99.90;;;;;;4929636;29;20554;-74
2023/12/11 15:07:33;;;;;;;2.75;1.90;;;9.20;99.90;;;;;;4929320;29;20233;-75
2023/12/11 15:10:00;;;;;;;1.92;1.55;;;9.20;99.90;;;;;;4922005;29;20240;-74
2023/12/11 15:12:27;;;;;;;2.80;1.92;;;9.20;99.90;;;;;;4928042;29;20218;-74
2023/12/11 15:14:53;;;;;;;1.60;1.50;;;9.10;99.90;;;;;;4925794;29;20576;-75
2023/12/11 15:17:20;;;;;;;3.13;1.33;;;9.10;99.90;;;;;;4921260;29;20218;-75
2023/12/11 15:19:48;;;;;;;3.58;3.38;;;9.10;99.90;;;;;;4909742;29;20215;-75
2023/12/11 15:22:15;;;;;;;2.42;2.25;;;9.10;99.90;;;;;;4907049;29;20234;-74
2023/12/11 15:24:42;;;;;;;3.78;3.47;;;9.10;99.90;;;;;;4908493;29;20228;-74
2023/12/11 15:27:08;;;;;;;4.15;3.78;;;9.10;99.90;;;;;;4913316;29;20206;-74
2023/12/11 15:29:36;;;;;;;2.90;2.80;;;9.10;99.90;;;;;;4916430;29;20823;-74
2023/12/11 15:32:02;;;;;;;2.95;2.70;;;9.10;99.90;;;;;;4915151;29;20694;-74
2023/12/11 15:34:30;;;;;;;5.00;4.25;;;9.10;99.90;;;;;;4916523;29;20242;-74
2023/12/11 15:36:58;;;;;;;5.65;3.25;;;9.10;99.90;;;;;;4917467;29;20219;-74
2023/12/11 15:39:25;;;;;;;2.90;2.70;;;9.10;99.90;;;;;;4906046;29;20258;-74
2023/12/11 15:41:52;;;;;;;2.92;2.60;;;9.10;99.90;;;;;;4904654;29;20231;-77
2023/12/11 15:44:18;;;;;;;3.05;2.85;;;9.10;99.90;;;;;;4917957;29;20226;-76
2023/12/11 15:46:45;;;;;;;2.75;2.00;;;9.10;99.90;;;;;;4925475;29;20315;-77
2023/12/11 15:49:12;;;;;;;1.50;1.50;;;9.10;99.90;;;;;;4920317;29;20584;-76
2023/12/11 15:51:38;;;;;;;2.45;1.98;;;9.10;99.90;;;;;;4926467;29;20702;-76
2023/12/11 15:54:06;;;;;;;6.00;1.98;;;9.10;99.90;;;;;;4918946;29;20598;-76
2023/12/11 15:56:33;;;;;;;2.08;1.90;;;9.10;99.90;;;;;;4919507;29;20216;-76
2023/12/11 15:59:00;;;;;;;1.95;1.85;;;9.10;99.90;;;;;;4911037;29;20208;-76
2023/12/11 16:01:27;;;;;;;2.35;2.13;;;9.10;99.90;;;;;;4925743;29;20250;-76
2023/12/11 16:03:54;;;;;;;3.50;2.22;;;9.10;99.90;;;;;;4917939;29;20230;-75
2023/12/11 16:06:20;;;;;;;2.95;2.03;;;9.10;99.90;;;;;;4913033;29;20213;-77
2023/12/11 16:08:47;;;;;;;4.30;2.10;;;9.10;99.90;;;;;;4917114;29;20221;-75
2023/12/11 16:11:16;;;;;;;3.10;2.90;;;9.10;99.90;;;;;;4907887;29;20297;-77
2023/12/11 16:13:43;;;;;;;3.50;2.88;;;9.10;99.90;;;;;;4908449;29;20739;-74
2023/12/11 16:16:11;;;;;;;2.97;2.78;;;9.10;99.90;;;;;;4906809;29;20298;-77
2023/12/11 16:18:39;;;;;;;6.30;2.67;;;9.10;99.90;;;;;;4918481;29;20911;-75
2023/12/11 16:21:06;;;;;;;1.42;1.42;;;9.10;99.90;;;;;;4914051;29;20213;-76
2023/12/11 16:23:33;;;;;;;3.03;2.92;;;9.00;99.90;;;;;;4917738;29;20238;-73
2023/12/11 16:26:00;;;;;;;1.92;1.73;;;9.00;99.90;;;;;;4911527;29;20711;-77
2023/12/11 16:28:28;;;;;;;2.20;2.10;;;9.00;99.90;;;;;;4919952;29;20587;-74
2023/12/11 16:30:54;;;;;;;2.22;2.13;;;8.90;99.90;;;;;;4914100;29;20221;-74
2023/12/11 16:33:21;;;;;;;8.75;2.25;;;8.90;99.90;;;;;;4926751;29;20225;-74
2023/12/11 16:35:48;;;;;;;2.58;2.40;;;8.90;99.90;;;;;;4923681;29;20215;-75
2023/12/11 16:38:14;;;;;;;6.80;2.33;;;8.80;99.90;;;;;;4916705;29;20207;-76
2023/12/11 16:40:41;;;;;;;2.85;1.80;;;8.80;99.90;;;;;;4915675;29;20218;-74
2023/12/11 16:43:08;;;;;;;2.78;2.22;;;8.80;99.90;;;;;;4927137;29;20272;-76
2023/12/11 16:45:36;;;;;;;2.05;1.67;;;8.70;99.90;;;;;;4924715;29;20686;-75
2023/12/11 16:48:03;;;;;;;2.60;2.38;;;8.70;99.90;;;;;;4917748;29;20210;-75
2023/12/11 16:50:30;;;;;;;3.08;2.20;;;8.70;99.90;;;;;;4915466;29;20230;-74
2023/12/11 16:52:56;;;;;;;3.80;2.75;;;8.70;99.90;;;;;;4923557;29;20234;-75
2023/12/11 16:55:23;;;;;;;2.20;2.10;;;8.70;99.90;;;;;;4914310;29;20218;-76
2023/12/11 16:57:50;;;;;;;2.25;2.10;;;8.70;99.90;;;;;;4922335;29;20217;-75
2023/12/11 17:00:17;;;;;;;4.72;2.67;;;8.60;99.90;;;;;;4914948;29;20277;-74
2023/12/11 17:02:45;;;;;;;2.03;1.92;;;8.60;99.90;;;;;;4915520;29;20667;-75
2023/12/11 17:05:12;;;;;;;1.75;1.75;;;8.60;99.90;;;;;;4919640;29;20206;-75
2023/12/11 17:07:38;;;;;;;3.08;2.88;;;8.60;99.90;;;;;;4919992;29;20241;-76
2023/12/11 17:10:06;;;;;;;2.80;2.60;;;8.60;99.90;;;;;;4922332;29;20206;-75
2023/12/11 17:12:33;;;;;;;3.15;2.85;;;8.60;99.90;;;;;;4915455;29;20211;-75
2023/12/11 17:15:00;;;;;;;5.30;3.80;;;8.60;99.90;;;;;;4913181;29;20222;-74
2023/12/11 17:17:27;;;;;;;3.85;2.97;;;8.60;99.90;;;;;;4924988;29;20218;-74
2023/12/11 17:19:55;;;;;;;5.85;3.88;;;8.60;99.90;;;;;;4913637;29;20202;-75
2023/12/11 17:22:22;;;;;;;3.67;3.47;;;8.60;99.90;;;;;;4909327;29;20235;-75
2023/12/11 17:24:48;;;;;;;3.75;2.95;;;8.60;99.90;;;;;;4918960;29;20859;-74
2023/12/11 17:27:15;;;;;;;4.55;1.70;;;8.60;99.90;;;;;;4926921;29;20202;-75
2023/12/11 17:29:42;;;;;;;1.77;1.67;;;8.60;99.90;;;;;;4916298;29;20210;-74
2023/12/11 17:32:09;;;;;;;2.78;2.58;;;8.60;99.90;;;;;;4908501;29;20300;-71
2023/12/11 17:34:36;;;;;;;6.13;2.95;;;8.60;99.90;;;;;;4919193;29;20226;-71
2023/12/11 17:37:04;;;;;;;1.63;1.63;;;8.60;99.90;;;;;;4912634;29;20260;-71
2023/12/11 17:39:31;;;;;;;3.08;2.88;;;8.60;99.90;;;;;;4908311;29;20211;-71
2023/12/11 17:41:57;;;;;;;3.75;2.53;;;8.70;99.90;;;;;;4913686;29;20215;-72
2023/12/11 17:44:24;;;;;;;2.42;2.15;;;8.60;99.90;;;;;;4913955;29;20253;-72
2023/12/11 17:46:51;;;;;;;1.63;1.63;;;8.70;99.90;;;;;;4912177;29;20216;-72
2023/12/11 17:49:17;;;;;;;2.88;2.67;;;8.60;99.90;;;;;;4910646;29;20217;-72
2023/12/11 17:51:44;;;;;;;3.10;2.55;;;8.60;99.90;;;;;;4918690;29;20213;-69
2023/12/11 17:54:12;;;;;;;4.95;2.05;;;8.60;99.90;;;;;;4920771;29;20234;-71
2023/12/11 17:56:39;;;;;;;3.05;2.85;;;8.60;99.90;;;;;;4909017;29;20222;-72
2023/12/11 17:59:05;;;;;;;3.25;1.90;;;8.60;99.90;;;;;;4911900;29;20690;-71
2023/12/11 18:01:32;;;;;;;5.25;3.22;;;8.60;99.90;;;;;;4914721;29;20226;-72
2023/12/11 18:03:59;;;;;;;4.10;3.42;;;8.50;99.90;;;;;;4925418;29;20238;-72
2023/12/11 18:06:25;;;;;;;5.38;3.17;;;8.50;99.90;;;;;;4919875;29;20236;-75
2023/12/11 18:08:52;;;;;;;2.40;2.28;;;8.50;99.90;;;;;;4927682;29;20210;-76